sensor_id;sensor_type;location;lat;lon;timestamp;temperature;humidity
61016;DHT22;46902;52.920;6.536;2023-07-31T00:01:01;15.90;99.90
61016;DHT22;46902;52.920;6.536;2023-07-31T00:03:27;15.90;99.90
61016;DHT22;46902;52.920;6.536;2023-07-31T00:05:52;15.80;99.90
61016;DHT22;46902;52.920;6.536;2023-07-31T00:08:18;15.90;99.90
61016;DHT22;46902;52.920;6.536;2023-07-31T00:10:44;15.80;99.90
61016;DHT22;46902;52.920;6.536;2023-07-31T00:13:09;15.80;99.90
61016;DHT22;46902;52.920;6.536;2023-07-31T00:15:35;15.80;99.90
61016;DHT22;46902;52.920;6.536;2023-07-31T00:18:00;15.80;99.90
61016;DHT22;46902;52.920;6.536;2023-07-31T00:20:26;15.80;99.90
61016;DHT22;46902;52.920;6.536;2023-07-31T00:22:52;15.80;99.90
61016;DHT22;46902;52.920;6.536;2023-07-31T00:25:18;15.90;99.90
61016;DHT22;46902;52.920;6.536;2023-07-31T00:27:43;15.80;99.90
61016;DHT22;46902;52.920;6.536;2023-07-31T00:30:11;15.80;99.90
61016;DHT22;46902;52.920;6.536;2023-07-31T00:32:36;15.70;99.90
61016;DHT22;46902;52.920;6.536;2023-07-31T00:35:02;15.70;99.90
61016;DHT22;46902;52.920;6.536;2023-07-31T00:37:28;15.70;99.90
61016;DHT22;46902;52.920;6.536;2023-07-31T00:39:54;15.80;99.90
61016;DHT22;46902;52.920;6.536;2023-07-31T00:42:19;15.70;99.90
61016;DHT22;46902;52.920;6.536;2023-07-31T00:44:45;15.70;99.90
61016;DHT22;46902;52.920;6.536;2023-07-31T00:47:11;15.70;99.90
61016;DHT22;46902;52.920;6.536;2023-07-31T00:49:36;15.70;99.90
61016;DHT22;46902;52.920;6.536;2023-07-31T00:52:03;15.70;99.90
61016;DHT22;46902;52.920;6.536;2023-07-31T00:54:28;15.70;99.90
61016;DHT22;46902;52.920;6.536;2023-07-31T00:56:54;15.70;99.90
61016;DHT22;46902;52.920;6.536;2023-07-31T00:59:20;15.70;99.90
61016;DHT22;46902;52.920;6.536;2023-07-31T01:01:46;15.70;99.90
61016;DHT22;46902;52.920;6.536;2023-07-31T01:04:12;15.70;99.90
61016;DHT22;46902;52.920;6.536;2023-07-31T01:06:51;15.60;99.90
61016;DHT22;46902;52.920;6.536;2023-07-31T01:12:14;15.60;99.90
61016;DHT22;46902;52.920;6.536;2023-07-31T01:14:40;15.50;99.90
61016;DHT22;46902;52.920;6.536;2023-07-31T01:17:06;15.50;99.90
61016;DHT22;46902;52.920;6.536;2023-07-31T01:19:32;15.50;99.90
61016;DHT22;46902;52.920;6.536;2023-07-31T01:27:30;15.50;99.90
61016;DHT22;46902;52.920;6.536;2023-07-31T01:30:08;15.50;99.90
61016;DHT22;46902;52.920;6.536;2023-07-31T01:32:39;15.60;99.90
61016;DHT22;46902;52.920;6.536;2023-07-31T01:35:06;15.50;99.90
61016;DHT22;46902;52.920;6.536;2023-07-31T01:37:32;15.50;99.90
61016;DHT22;46902;52.920;6.536;2023-07-31T01:39:57;15.50;99.90
61016;DHT22;46902;52.920;6.536;2023-07-31T01:42:23;15.50;99.90
61016;DHT22;46902;52.920;6.536;2023-07-31T01:44:48;15.50;99.90
61016;DHT22;46902;52.920;6.536;2023-07-31T01:47:14;15.60;99.90
61016;DHT22;46902;52.920;6.536;2023-07-31T01:49:40;15.60;99.90
61016;DHT22;46902;52.920;6.536;2023-07-31T01:52:06;15.70;99.90
61016;DHT22;46902;52.920;6.536;2023-07-31T01:54:31;15.70;99.90
61016;DHT22;46902;52.920;6.536;2023-07-31T01:56:57;15.70;99.90
61016;DHT22;46902;52.920;6.536;2023-07-31T01:59:22;15.60;99.90
61016;DHT22;46902;52.920;6.536;2023-07-31T02:01:48;15.70;99.90
61016;DHT22;46902;52.920;6.536;2023-07-31T02:04:13;15.70;99.90
61016;DHT22;46902;52.920;6.536;2023-07-31T02:06:39;15.70;99.90
61016;DHT22;46902;52.920;6.536;2023-07-31T02:09:05;15.70;99.90
61016;DHT22;46902;52.920;6.536;2023-07-31T02:11:30;15.80;99.90
61016;DHT22;46902;52.920;6.536;2023-07-31T02:13:56;15.80;99.90
61016;DHT22;46902;52.920;6.536;2023-07-31T02:16:22;15.80;99.90
61016;DHT22;46902;52.920;6.536;2023-07-31T02:18:47;15.80;99.90
61016;DHT22;46902;52.920;6.536;2023-07-31T02:21:13;15.80;99.90
61016;DHT22;46902;52.920;6.536;2023-07-31T02:23:38;15.80;99.90
61016;DHT22;46902;52.920;6.536;2023-07-31T02:26:04;15.70;99.90
61016;DHT22;46902;52.920;6.536;2023-07-31T02:28:30;15.90;99.90
61016;DHT22;46902;52.920;6.536;2023-07-31T02:30:55;15.80;99.90
61016;DHT22;46902;52.920;6.536;2023-07-31T02:33:21;15.80;99.90
61016;DHT22;46902;52.920;6.536;2023-07-31T02:35:47;15.90;99.90
61016;DHT22;46902;52.920;6.536;2023-07-31T02:38:12;15.90;99.90
61016;DHT22;46902;52.920;6.536;2023-07-31T02:40:39;15.80;99.90
61016;DHT22;46902;52.920;6.536;2023-07-31T02:43:06;15.90;99.90
61016;DHT22;46902;52.920;6.536;2023-07-31T02:45:32;15.80;99.90
61016;DHT22;46902;52.920;6.536;2023-07-31T02:47:58;15.80;99.90
61016;DHT22;46902;52.920;6.536;2023-07-31T02:50:23;15.80;99.90
61016;DHT22;46902;52.920;6.536;2023-07-31T02:52:49;15.80;99.90
61016;DHT22;46902;52.920;6.536;2023-07-31T02:55:15;15.90;99.90
61016;DHT22;46902;52.920;6.536;2023-07-31T02:57:40;15.90;99.90
61016;DHT22;46902;52.920;6.536;2023-07-31T03:00:06;16.00;99.90
61016;DHT22;46902;52.920;6.536;2023-07-31T03:02:32;16.00;99.90
61016;DHT22;46902;52.920;6.536;2023-07-31T03:04:58;15.90;99.90
61016;DHT22;46902;52.920;6.536;2023-07-31T03:07:23;15.90;99.90
61016;DHT22;46902;52.920;6.536;2023-07-31T03:09:49;16.00;99.90
61016;DHT22;46902;52.920;6.536;2023-07-31T03:12:15;16.00;99.90
61016;DHT22;46902;52.920;6.536;2023-07-31T03:14:40;16.00;99.90
61016;DHT22;46902;52.920;6.536;2023-07-31T03:17:06;16.10;99.90
61016;DHT22;46902;52.920;6.536;2023-07-31T03:19:32;16.00;99.90
61016;DHT22;46902;52.920;6.536;2023-07-31T03:21:58;16.00;99.90
61016;DHT22;46902;52.920;6.536;2023-07-31T03:24:24;16.10;99.90
61016;DHT22;46902;52.920;6.536;2023-07-31T03:26:49;16.10;99.90
61016;DHT22;46902;52.920;6.536;2023-07-31T03:29:15;16.10;99.90
61016;DHT22;46902;52.920;6.536;2023-07-31T03:31:41;16.10;99.90
61016;DHT22;46902;52.920;6.536;2023-07-31T03:34:06;16.20;99.90
61016;DHT22;46902;52.920;6.536;2023-07-31T03:36:32;16.20;99.90
61016;DHT22;46902;52.920;6.536;2023-07-31T03:38:58;16.10;99.90
61016;DHT22;46902;52.920;6.536;2023-07-31T03:41:23;16.20;99.90
61016;DHT22;46902;52.920;6.536;2023-07-31T03:43:50;16.20;99.90
61016;DHT22;46902;52.920;6.536;2023-07-31T03:46:17;16.20;99.90
61016;DHT22;46902;52.920;6.536;2023-07-31T03:48:43;16.10;99.90
61016;DHT22;46902;52.920;6.536;2023-07-31T03:51:08;16.20;99.90
61016;DHT22;46902;52.920;6.536;2023-07-31T03:53:34;16.20;99.90
61016;DHT22;46902;52.920;6.536;2023-07-31T03:55:59;16.20;99.90
61016;DHT22;46902;52.920;6.536;2023-07-31T03:58:25;16.20;99.90
61016;DHT22;46902;52.920;6.536;2023-07-31T04:00:50;16.20;99.90
61016;DHT22;46902;52.920;6.536;2023-07-31T04:03:16;16.20;99.90
61016;DHT22;46902;52.920;6.536;2023-07-31T04:05:42;16.20;99.90
61016;DHT22;46902;52.920;6.536;2023-07-31T04:08:07;16.30;99.90
61016;DHT22;46902;52.920;6.536;2023-07-31T04:10:33;16.20;99.90
61016;DHT22;46902;52.920;6.536;2023-07-31T04:12:59;16.30;99.90
61016;DHT22;46902;52.920;6.536;2023-07-31T04:15:25;16.30;99.90
61016;DHT22;46902;52.920;6.536;2023-07-31T04:17:51;16.30;99.90
61016;DHT22;46902;52.920;6.536;2023-07-31T04:20:17;16.30;99.90
61016;DHT22;46902;52.920;6.536;2023-07-31T04:22:42;16.20;99.90
61016;DHT22;46902;52.920;6.536;2023-07-31T04:25:08;16.20;99.90
61016;DHT22;46902;52.920;6.536;2023-07-31T04:27:34;16.10;99.90
61016;DHT22;46902;52.920;6.536;2023-07-31T04:29:59;16.30;99.90
61016;DHT22;46902;52.920;6.536;2023-07-31T04:32:25;16.30;99.90
61016;DHT22;46902;52.920;6.536;2023-07-31T04:34:50;16.20;99.90
61016;DHT22;46902;52.920;6.536;2023-07-31T04:37:16;16.20;99.90
61016;DHT22;46902;52.920;6.536;2023-07-31T04:39:42;16.20;99.90
61016;DHT22;46902;52.920;6.536;2023-07-31T04:42:07;16.30;99.90
61016;DHT22;46902;52.920;6.536;2023-07-31T04:44:33;16.30;99.90
61016;DHT22;46902;52.920;6.536;2023-07-31T04:46:58;16.20;99.90
61016;DHT22;46902;52.920;6.536;2023-07-31T04:49:24;16.30;99.90
61016;DHT22;46902;52.920;6.536;2023-07-31T04:51:49;16.30;99.90
61016;DHT22;46902;52.920;6.536;2023-07-31T04:54:15;16.30;99.90
61016;DHT22;46902;52.920;6.536;2023-07-31T04:56:41;16.30;99.90
61016;DHT22;46902;52.920;6.536;2023-07-31T04:59:07;16.30;99.90
61016;DHT22;46902;52.920;6.536;2023-07-31T05:01:32;16.40;99.90
61016;DHT22;46902;52.920;6.536;2023-07-31T05:03:58;16.40;99.90
61016;DHT22;46902;52.920;6.536;2023-07-31T05:06:23;16.40;99.90
61016;DHT22;46902;52.920;6.536;2023-07-31T05:08:49;16.30;99.90
61016;DHT22;46902;52.920;6.536;2023-07-31T05:11:14;16.50;99.90
61016;DHT22;46902;52.920;6.536;2023-07-31T05:13:40;16.40;99.90
61016;DHT22;46902;52.920;6.536;2023-07-31T05:16:05;16.50;99.90
61016;DHT22;46902;52.920;6.536;2023-07-31T05:18:31;16.50;99.90
61016;DHT22;46902;52.920;6.536;2023-07-31T05:20:56;16.60;99.90
61016;DHT22;46902;52.920;6.536;2023-07-31T05:23:22;16.50;99.90
61016;DHT22;46902;52.920;6.536;2023-07-31T05:25:48;16.50;99.90
61016;DHT22;46902;52.920;6.536;2023-07-31T05:28:13;16.60;99.90
61016;DHT22;46902;52.920;6.536;2023-07-31T05:30:39;16.60;99.90
61016;DHT22;46902;52.920;6.536;2023-07-31T05:33:04;16.60;99.90
61016;DHT22;46902;52.920;6.536;2023-07-31T05:35:30;16.60;99.90
61016;DHT22;46902;52.920;6.536;2023-07-31T05:37:55;16.70;99.90
61016;DHT22;46902;52.920;6.536;2023-07-31T05:40:21;16.60;99.90
61016;DHT22;46902;52.920;6.536;2023-07-31T05:42:46;16.70;99.90
61016;DHT22;46902;52.920;6.536;2023-07-31T05:45:12;16.60;99.90
61016;DHT22;46902;52.920;6.536;2023-07-31T05:47:39;16.70;99.90
61016;DHT22;46902;52.920;6.536;2023-07-31T05:50:05;16.70;99.90
61016;DHT22;46902;52.920;6.536;2023-07-31T05:52:30;16.70;99.90
61016;DHT22;46902;52.920;6.536;2023-07-31T05:54:56;16.60;99.90
61016;DHT22;46902;52.920;6.536;2023-07-31T05:57:22;16.80;99.90
61016;DHT22;46902;52.920;6.536;2023-07-31T05:59:47;16.70;99.90
61016;DHT22;46902;52.920;6.536;2023-07-31T06:02:13;16.60;99.90
61016;DHT22;46902;52.920;6.536;2023-07-31T06:04:39;16.70;99.90
61016;DHT22;46902;52.920;6.536;2023-07-31T06:07:05;16.70;99.90
61016;DHT22;46902;52.920;6.536;2023-07-31T06:09:30;16.60;99.90
61016;DHT22;46902;52.920;6.536;2023-07-31T06:11:56;16.70;99.90
61016;DHT22;46902;52.920;6.536;2023-07-31T06:14:22;16.70;99.90
61016;DHT22;46902;52.920;6.536;2023-07-31T06:16:47;16.70;99.90
61016;DHT22;46902;52.920;6.536;2023-07-31T06:19:13;16.70;99.90
61016;DHT22;46902;52.920;6.536;2023-07-31T06:21:39;16.70;99.90
61016;DHT22;46902;52.920;6.536;2023-07-31T06:24:08;16.70;99.90
61016;DHT22;46902;52.920;6.536;2023-07-31T06:26:33;16.80;99.90
61016;DHT22;46902;52.920;6.536;2023-07-31T06:28:59;16.70;99.90
61016;DHT22;46902;52.920;6.536;2023-07-31T06:31:24;16.70;99.90
61016;DHT22;46902;52.920;6.536;2023-07-31T06:33:51;16.70;99.90
61016;DHT22;46902;52.920;6.536;2023-07-31T06:36:17;16.80;99.90
61016;DHT22;46902;52.920;6.536;2023-07-31T06:38:43;16.70;99.90
61016;DHT22;46902;52.920;6.536;2023-07-31T06:41:09;16.70;99.90
61016;DHT22;46902;52.920;6.536;2023-07-31T06:43:36;16.80;99.90
61016;DHT22;46902;52.920;6.536;2023-07-31T06:46:05;16.80;99.90
61016;DHT22;46902;52.920;6.536;2023-07-31T06:48:32;16.70;99.90
61016;DHT22;46902;52.920;6.536;2023-07-31T06:50:58;16.70;99.90
61016;DHT22;46902;52.920;6.536;2023-07-31T06:53:24;16.70;99.90
61016;DHT22;46902;52.920;6.536;2023-07-31T06:55:49;16.80;99.90
61016;DHT22;46902;52.920;6.536;2023-07-31T06:58:17;16.80;99.90
61016;DHT22;46902;52.920;6.536;2023-07-31T07:00:42;16.80;99.90
61016;DHT22;46902;52.920;6.536;2023-07-31T07:03:08;16.70;99.90
61016;DHT22;46902;52.920;6.536;2023-07-31T07:05:34;16.80;99.90
61016;DHT22;46902;52.920;6.536;2023-07-31T07:07:59;16.80;99.90
61016;DHT22;46902;52.920;6.536;2023-07-31T07:10:25;16.70;99.90
61016;DHT22;46902;52.920;6.536;2023-07-31T07:12:51;16.70;99.90
61016;DHT22;46902;52.920;6.536;2023-07-31T07:15:17;16.70;99.90
61016;DHT22;46902;52.920;6.536;2023-07-31T07:17:42;16.70;99.90
61016;DHT22;46902;52.920;6.536;2023-07-31T07:20:08;16.80;99.90
61016;DHT22;46902;52.920;6.536;2023-07-31T07:22:34;16.70;99.90
61016;DHT22;46902;52.920;6.536;2023-07-31T07:24:59;16.70;99.90
61016;DHT22;46902;52.920;6.536;2023-07-31T07:27:25;16.80;99.90
61016;DHT22;46902;52.920;6.536;2023-07-31T07:29:51;16.70;99.90
61016;DHT22;46902;52.920;6.536;2023-07-31T07:32:18;16.80;99.90
61016;DHT22;46902;52.920;6.536;2023-07-31T07:34:44;16.80;99.90
61016;DHT22;46902;52.920;6.536;2023-07-31T07:37:09;16.80;99.90
61016;DHT22;46902;52.920;6.536;2023-07-31T07:39:35;16.80;99.90
61016;DHT22;46902;52.920;6.536;2023-07-31T07:42:00;16.90;99.90
61016;DHT22;46902;52.920;6.536;2023-07-31T07:44:26;16.80;99.90
61016;DHT22;46902;52.920;6.536;2023-07-31T07:46:52;16.80;99.90
61016;DHT22;46902;52.920;6.536;2023-07-31T07:49:17;16.80;99.90
61016;DHT22;46902;52.920;6.536;2023-07-31T07:51:43;16.90;99.90
61016;DHT22;46902;52.920;6.536;2023-07-31T07:54:09;16.90;99.90
61016;DHT22;46902;52.920;6.536;2023-07-31T07:56:34;16.80;99.90
61016;DHT22;46902;52.920;6.536;2023-07-31T07:59:01;16.70;99.90
61016;DHT22;46902;52.920;6.536;2023-07-31T08:01:27;16.90;99.90
61016;DHT22;46902;52.920;6.536;2023-07-31T08:03:53;16.90;99.90
61016;DHT22;46902;52.920;6.536;2023-07-31T08:06:18;16.80;99.90
61016;DHT22;46902;52.920;6.536;2023-07-31T08:08:44;16.90;99.90
61016;DHT22;46902;52.920;6.536;2023-07-31T08:11:10;16.90;99.90
61016;DHT22;46902;52.920;6.536;2023-07-31T08:13:35;16.90;99.90
61016;DHT22;46902;52.920;6.536;2023-07-31T08:16:03;16.90;99.90
61016;DHT22;46902;52.920;6.536;2023-07-31T08:18:28;16.90;99.90
61016;DHT22;46902;52.920;6.536;2023-07-31T08:20:54;17.00;99.90
61016;DHT22;46902;52.920;6.536;2023-07-31T08:23:20;17.00;99.90
61016;DHT22;46902;52.920;6.536;2023-07-31T08:25:45;17.00;99.90
61016;DHT22;46902;52.920;6.536;2023-07-31T08:28:11;17.20;99.90
61016;DHT22;46902;52.920;6.536;2023-07-31T08:30:37;17.00;99.90
61016;DHT22;46902;52.920;6.536;2023-07-31T08:33:02;17.10;99.90
61016;DHT22;46902;52.920;6.536;2023-07-31T08:35:28;17.00;99.90
61016;DHT22;46902;52.920;6.536;2023-07-31T08:37:54;17.00;99.90
61016;DHT22;46902;52.920;6.536;2023-07-31T08:40:20;17.10;99.90
61016;DHT22;46902;52.920;6.536;2023-07-31T08:42:48;17.10;99.90
61016;DHT22;46902;52.920;6.536;2023-07-31T08:45:16;17.10;99.90
61016;DHT22;46902;52.920;6.536;2023-07-31T08:47:48;17.10;99.90
61016;DHT22;46902;52.920;6.536;2023-07-31T08:50:15;17.20;99.90
61016;DHT22;46902;52.920;6.536;2023-07-31T08:52:41;17.20;99.90
61016;DHT22;46902;52.920;6.536;2023-07-31T08:55:08;17.30;99.90
61016;DHT22;46902;52.920;6.536;2023-07-31T08:57:38;17.30;99.90
61016;DHT22;46902;52.920;6.536;2023-07-31T09:00:05;17.30;99.90
61016;DHT22;46902;52.920;6.536;2023-07-31T09:02:39;17.20;99.90
61016;DHT22;46902;52.920;6.536;2023-07-31T09:05:07;17.40;99.90
61016;DHT22;46902;52.920;6.536;2023-07-31T09:07:34;17.30;99.90
61016;DHT22;46902;52.920;6.536;2023-07-31T09:10:01;17.50;99.90
61016;DHT22;46902;52.920;6.536;2023-07-31T09:12:28;17.60;99.90
61016;DHT22;46902;52.920;6.536;2023-07-31T09:14:53;17.50;99.90
61016;DHT22;46902;52.920;6.536;2023-07-31T09:17:36;17.50;99.90
61016;DHT22;46902;52.920;6.536;2023-07-31T09:20:18;17.50;99.90
61016;DHT22;46902;52.920;6.536;2023-07-31T09:22:44;17.50;99.90
61016;DHT22;46902;52.920;6.536;2023-07-31T09:25:18;17.50;99.90
61016;DHT22;46902;52.920;6.536;2023-07-31T09:27:51;17.50;99.90
61016;DHT22;46902;52.920;6.536;2023-07-31T09:30:17;17.50;99.90
61016;DHT22;46902;52.920;6.536;2023-07-31T09:32:44;17.40;99.90
61016;DHT22;46902;52.920;6.536;2023-07-31T09:35:30;17.60;99.90
61016;DHT22;46902;52.920;6.536;2023-07-31T09:38:11;17.60;99.90
61016;DHT22;46902;52.920;6.536;2023-07-31T09:40:45;17.60;99.90
61016;DHT22;46902;52.920;6.536;2023-07-31T09:43:13;17.60;99.90
61016;DHT22;46902;52.920;6.536;2023-07-31T09:45:40;17.60;99.90
61016;DHT22;46902;52.920;6.536;2023-07-31T09:48:13;17.60;99.90
61016;DHT22;46902;52.920;6.536;2023-07-31T09:50:46;17.70;99.90
61016;DHT22;46902;52.920;6.536;2023-07-31T09:53:12;17.80;99.90
61016;DHT22;46902;52.920;6.536;2023-07-31T09:55:39;17.80;99.90
61016;DHT22;46902;52.920;6.536;2023-07-31T09:58:08;18.00;99.90
61016;DHT22;46902;52.920;6.536;2023-07-31T10:00:34;17.90;99.90
61016;DHT22;46902;52.920;6.536;2023-07-31T10:03:01;18.20;99.90
61016;DHT22;46902;52.920;6.536;2023-07-31T10:05:34;18.00;99.90
61016;DHT22;46902;52.920;6.536;2023-07-31T10:08:00;18.10;99.90
61016;DHT22;46902;52.920;6.536;2023-07-31T10:10:26;18.10;99.90
61016;DHT22;46902;52.920;6.536;2023-07-31T10:12:53;18.30;99.90
61016;DHT22;46902;52.920;6.536;2023-07-31T10:15:19;18.40;99.90
61016;DHT22;46902;52.920;6.536;2023-07-31T10:17:47;18.50;99.90
61016;DHT22;46902;52.920;6.536;2023-07-31T10:20:14;18.50;99.90
61016;DHT22;46902;52.920;6.536;2023-07-31T10:22:42;18.50;99.90
61016;DHT22;46902;52.920;6.536;2023-07-31T10:25:09;18.40;99.90
61016;DHT22;46902;52.920;6.536;2023-07-31T10:27:41;18.40;99.90
61016;DHT22;46902;52.920;6.536;2023-07-31T10:30:10;18.40;99.90
61016;DHT22;46902;52.920;6.536;2023-07-31T10:32:38;18.40;99.90
61016;DHT22;46902;52.920;6.536;2023-07-31T10:35:06;18.50;99.90
61016;DHT22;46902;52.920;6.536;2023-07-31T10:37:40;18.60;99.90
61016;DHT22;46902;52.920;6.536;2023-07-31T10:43:07;18.50;99.90
61016;DHT22;46902;52.920;6.536;2023-07-31T10:45:39;18.60;99.90
61016;DHT22;46902;52.920;6.536;2023-07-31T10:48:15;18.60;99.90
61016;DHT22;46902;52.920;6.536;2023-07-31T10:50:49;18.60;99.90
61016;DHT22;46902;52.920;6.536;2023-07-31T10:53:25;18.80;99.90
61016;DHT22;46902;52.920;6.536;2023-07-31T10:55:52;18.90;99.90
61016;DHT22;46902;52.920;6.536;2023-07-31T10:58:21;18.80;99.90
61016;DHT22;46902;52.920;6.536;2023-07-31T11:00:47;18.80;99.90
61016;DHT22;46902;52.920;6.536;2023-07-31T11:03:14;18.80;99.90
61016;DHT22;46902;52.920;6.536;2023-07-31T11:08:22;19.00;99.90
61016;DHT22;46902;52.920;6.536;2023-07-31T11:13:51;18.90;99.90
61016;DHT22;46902;52.920;6.536;2023-07-31T11:16:24;19.00;99.90
61016;DHT22;46902;52.920;6.536;2023-07-31T11:18:51;19.10;99.90
61016;DHT22;46902;52.920;6.536;2023-07-31T11:21:21;19.20;99.90
61016;DHT22;46902;52.920;6.536;2023-07-31T11:23:52;19.40;99.90
61016;DHT22;46902;52.920;6.536;2023-07-31T11:26:19;19.50;99.90
61016;DHT22;46902;52.920;6.536;2023-07-31T11:28:48;19.60;99.90
61016;DHT22;46902;52.920;6.536;2023-07-31T11:31:14;19.60;99.90
61016;DHT22;46902;52.920;6.536;2023-07-31T11:33:40;19.60;99.90
61016;DHT22;46902;52.920;6.536;2023-07-31T11:36:14;19.50;99.90
61016;DHT22;46902;52.920;6.536;2023-07-31T11:38:39;19.60;99.90
61016;DHT22;46902;52.920;6.536;2023-07-31T11:41:05;19.40;99.90
61016;DHT22;46902;52.920;6.536;2023-07-31T11:43:31;19.50;99.90
61016;DHT22;46902;52.920;6.536;2023-07-31T11:45:59;19.50;99.90
61016;DHT22;46902;52.920;6.536;2023-07-31T11:48:30;19.50;99.90
61016;DHT22;46902;52.920;6.536;2023-07-31T11:51:00;19.50;99.90
61016;DHT22;46902;52.920;6.536;2023-07-31T11:53:40;19.60;99.90
61016;DHT22;46902;52.920;6.536;2023-07-31T11:56:10;19.70;99.90
61016;DHT22;46902;52.920;6.536;2023-07-31T11:58:37;19.70;99.90
61016;DHT22;46902;52.920;6.536;2023-07-31T12:01:04;19.50;99.90
61016;DHT22;46902;52.920;6.536;2023-07-31T12:03:31;19.50;99.90
61016;DHT22;46902;52.920;6.536;2023-07-31T12:05:58;19.40;99.90
61016;DHT22;46902;52.920;6.536;2023-07-31T12:08:25;19.20;99.90
61016;DHT22;46902;52.920;6.536;2023-07-31T12:10:51;19.20;99.90
61016;DHT22;46902;52.920;6.536;2023-07-31T12:13:25;19.30;99.90
61016;DHT22;46902;52.920;6.536;2023-07-31T12:15:59;19.10;99.90
61016;DHT22;46902;52.920;6.536;2023-07-31T12:18:27;19.20;99.90
61016;DHT22;46902;52.920;6.536;2023-07-31T12:20:56;18.90;99.90
61016;DHT22;46902;52.920;6.536;2023-07-31T12:23:32;19.00;99.90
61016;DHT22;46902;52.920;6.536;2023-07-31T12:26:15;18.90;99.90
61016;DHT22;46902;52.920;6.536;2023-07-31T12:31:10;18.90;99.90
61016;DHT22;46902;52.920;6.536;2023-07-31T12:33:37;19.00;99.90
61016;DHT22;46902;52.920;6.536;2023-07-31T12:36:09;19.30;99.90
61016;DHT22;46902;52.920;6.536;2023-07-31T12:38:35;19.50;99.90
61016;DHT22;46902;52.920;6.536;2023-07-31T12:41:00;19.50;99.90
61016;DHT22;46902;52.920;6.536;2023-07-31T12:43:26;19.70;99.90
61016;DHT22;46902;52.920;6.536;2023-07-31T12:45:54;19.70;99.90
61016;DHT22;46902;52.920;6.536;2023-07-31T12:48:20;19.80;99.90
61016;DHT22;46902;52.920;6.536;2023-07-31T12:50:45;19.70;99.90
61016;DHT22;46902;52.920;6.536;2023-07-31T12:53:11;19.70;99.90
61016;DHT22;46902;52.920;6.536;2023-07-31T12:55:36;19.60;99.90
61016;DHT22;46902;52.920;6.536;2023-07-31T12:58:03;19.50;99.90
61016;DHT22;46902;52.920;6.536;2023-07-31T13:00:29;19.40;99.90
61016;DHT22;46902;52.920;6.536;2023-07-31T13:02:54;19.50;99.90
61016;DHT22;46902;52.920;6.536;2023-07-31T13:05:20;19.50;99.90
61016;DHT22;46902;52.920;6.536;2023-07-31T13:07:49;19.70;99.90
61016;DHT22;46902;52.920;6.536;2023-07-31T13:10:15;19.80;99.90
61016;DHT22;46902;52.920;6.536;2023-07-31T13:12:41;19.80;99.90
61016;DHT22;46902;52.920;6.536;2023-07-31T13:15:07;20.00;99.90
61016;DHT22;46902;52.920;6.536;2023-07-31T13:17:33;19.90;99.90
61016;DHT22;46902;52.920;6.536;2023-07-31T13:19:59;20.00;99.90
61016;DHT22;46902;52.920;6.536;2023-07-31T13:22:25;19.90;99.90
61016;DHT22;46902;52.920;6.536;2023-07-31T13:24:50;19.90;99.90
61016;DHT22;46902;52.920;6.536;2023-07-31T13:27:16;19.80;99.90
61016;DHT22;46902;52.920;6.536;2023-07-31T13:29:47;19.90;99.90
61016;DHT22;46902;52.920;6.536;2023-07-31T13:32:13;19.90;99.90
61016;DHT22;46902;52.920;6.536;2023-07-31T13:34:39;19.90;99.90
61016;DHT22;46902;52.920;6.536;2023-07-31T13:37:05;19.80;99.90
61016;DHT22;46902;52.920;6.536;2023-07-31T13:39:31;19.90;99.90
61016;DHT22;46902;52.920;6.536;2023-07-31T13:41:58;19.90;99.90
61016;DHT22;46902;52.920;6.536;2023-07-31T13:44:24;19.80;99.90
61016;DHT22;46902;52.920;6.536;2023-07-31T13:46:49;19.90;99.90
61016;DHT22;46902;52.920;6.536;2023-07-31T13:49:15;19.90;99.90
61016;DHT22;46902;52.920;6.536;2023-07-31T13:51:40;19.90;99.90
61016;DHT22;46902;52.920;6.536;2023-07-31T13:54:06;19.90;99.90
61016;DHT22;46902;52.920;6.536;2023-07-31T13:56:32;19.80;99.90
61016;DHT22;46902;52.920;6.536;2023-07-31T13:58:58;19.90;99.90
61016;DHT22;46902;52.920;6.536;2023-07-31T14:01:23;20.00;99.90
61016;DHT22;46902;52.920;6.536;2023-07-31T14:03:49;20.00;99.90
61016;DHT22;46902;52.920;6.536;2023-07-31T14:06:15;20.10;99.90
61016;DHT22;46902;52.920;6.536;2023-07-31T14:08:40;20.00;99.90
61016;DHT22;46902;52.920;6.536;2023-07-31T14:11:06;19.90;99.90
61016;DHT22;46902;52.920;6.536;2023-07-31T14:13:31;19.90;99.90
61016;DHT22;46902;52.920;6.536;2023-07-31T14:15:57;19.90;99.90
61016;DHT22;46902;52.920;6.536;2023-07-31T14:18:23;19.90;99.90
61016;DHT22;46902;52.920;6.536;2023-07-31T14:20:48;20.00;99.90
61016;DHT22;46902;52.920;6.536;2023-07-31T14:23:14;19.90;99.90
61016;DHT22;46902;52.920;6.536;2023-07-31T14:25:41;20.00;99.90
61016;DHT22;46902;52.920;6.536;2023-07-31T14:28:06;20.00;99.90
61016;DHT22;46902;52.920;6.536;2023-07-31T14:30:32;20.00;99.90
61016;DHT22;46902;52.920;6.536;2023-07-31T14:32:58;20.00;99.90
61016;DHT22;46902;52.920;6.536;2023-07-31T14:35:25;20.10;99.90
61016;DHT22;46902;52.920;6.536;2023-07-31T14:37:51;20.10;99.90
61016;DHT22;46902;52.920;6.536;2023-07-31T14:40:17;20.10;99.90
61016;DHT22;46902;52.920;6.536;2023-07-31T14:42:42;20.20;99.90
61016;DHT22;46902;52.920;6.536;2023-07-31T14:45:08;20.20;99.90
61016;DHT22;46902;52.920;6.536;2023-07-31T14:47:36;20.20;99.90
61016;DHT22;46902;52.920;6.536;2023-07-31T14:50:01;20.20;99.90
61016;DHT22;46902;52.920;6.536;2023-07-31T14:52:28;20.20;99.90
61016;DHT22;46902;52.920;6.536;2023-07-31T14:54:54;20.20;99.90
61016;DHT22;46902;52.920;6.536;2023-07-31T14:57:20;20.10;99.90
61016;DHT22;46902;52.920;6.536;2023-07-31T14:59:46;20.10;99.90
61016;DHT22;46902;52.920;6.536;2023-07-31T15:02:11;20.10;99.90
61016;DHT22;46902;52.920;6.536;2023-07-31T15:04:37;20.10;99.90
61016;DHT22;46902;52.920;6.536;2023-07-31T15:07:03;20.10;99.90
61016;DHT22;46902;52.920;6.536;2023-07-31T15:09:29;20.00;99.90
61016;DHT22;46902;52.920;6.536;2023-07-31T15:11:55;19.90;99.90
61016;DHT22;46902;52.920;6.536;2023-07-31T15:14:21;19.90;99.90
61016;DHT22;46902;52.920;6.536;2023-07-31T15:16:47;19.90;99.90
61016;DHT22;46902;52.920;6.536;2023-07-31T15:19:12;19.90;99.90
61016;DHT22;46902;52.920;6.536;2023-07-31T15:21:38;19.80;99.90
61016;DHT22;46902;52.920;6.536;2023-07-31T15:24:04;19.80;99.90
61016;DHT22;46902;52.920;6.536;2023-07-31T15:26:30;19.80;99.90
61016;DHT22;46902;52.920;6.536;2023-07-31T15:29:00;19.80;99.90
61016;DHT22;46902;52.920;6.536;2023-07-31T15:31:27;19.80;99.90
61016;DHT22;46902;52.920;6.536;2023-07-31T15:33:52;19.80;99.90
61016;DHT22;46902;52.920;6.536;2023-07-31T15:36:18;19.80;99.90
61016;DHT22;46902;52.920;6.536;2023-07-31T15:38:44;19.80;99.90
61016;DHT22;46902;52.920;6.536;2023-07-31T15:41:09;19.80;99.90
61016;DHT22;46902;52.920;6.536;2023-07-31T15:43:35;19.80;99.90
61016;DHT22;46902;52.920;6.536;2023-07-31T15:46:01;19.80;99.90